TimeCDT,TemperatureF,Dew PointF,Humidity,Sea Level PressureIn,VisibilityMPH,Wind Direction,Wind SpeedMPH,Gust SpeedMPH,PrecipitationIn,Events,Conditions,WindDirDegrees,DateUTC
12:15 AM,65.3,62.1,89,29.92,10.0,ESE,8.1,-,N/A,,Clear,110,2013-06-24 05:15:00
12:35 AM,64.6,61.9,91,29.91,10.0,ESE,6.9,-,N/A,,Clear,110,2013-06-24 05:35:00
12:55 AM,64.9,62.2,91,29.90,10.0,ESE,6.9,-,N/A,,Clear,110,2013-06-24 05:55:00
1:15 AM,64.0,61.5,91,29.90,10.0,East,5.8,-,N/A,,Clear,90,2013-06-24 06:15:00
1:35 AM,64.0,61.7,92,29.89,10.0,East,4.6,-,N/A,,Clear,100,2013-06-24 06:35:00
1:55 AM,63.9,61.7,93,29.89,10.0,ESE,4.6,-,N/A,,Clear,120,2013-06-24 06:55:00
2:15 AM,64.0,61.7,92,29.89,10.0,East,4.6,-,N/A,,Clear,100,2013-06-24 07:15:00
2:35 AM,64.0,61.7,92,29.89,10.0,ESE,4.6,-,N/A,,Clear,120,2013-06-24 07:35:00
2:55 AM,64.0,61.9,93,29.87,10.0,ESE,8.1,-,N/A,,Clear,120,2013-06-24 07:55:00
3:15 AM,64.4,62.4,93,29.87,10.0,ESE,4.6,-,N/A,,Clear,120,2013-06-24 08:15:00
3:35 AM,64.6,62.6,93,29.86,10.0,SE,5.8,-,N/A,,Clear,130,2013-06-24 08:35:00
3:55 AM,65.3,63.1,93,29.87,10.0,ESE,6.9,-,N/A,,Scattered Clouds,110,2013-06-24 08:55:00
4:15 AM,66.2,63.9,92,29.85,10.0,ESE,6.9,-,N/A,Thunderstorm,Scattered Clouds,120,2013-06-24 09:15:00
4:35 AM,67.1,64.4,91,29.85,10.0,SE,9.2,-,N/A,Thunderstorm,Thunderstorm,130,2013-06-24 09:35:00
4:55 AM,67.5,63.5,87,29.87,10.0,SSW,27.6,43.7,N/A,Rain-Thunderstorm,Light Thunderstorms and Rain,200,2013-06-24 09:55:00
5:15 AM,65.3,57.6,76,29.84,10.0,SSW,17.3,25.3,N/A,Rain-Thunderstorm,Light Thunderstorms and Rain,210,2013-06-24 10:15:00
5:35 AM,66.9,56.1,68,29.86,10.0,South,25.3,34.5,N/A,Rain-Thunderstorm,Light Thunderstorms and Rain,190,2013-06-24 10:35:00
5:55 AM,63.3,58.6,85,29.87,10.0,South,16.1,32.2,0.01,Rain,Rain,190,2013-06-24 10:55:00
6:15 AM,63.0,59.5,89,29.81,10.0,WNW,11.5,-,0.02,Rain,Light Rain,290,2013-06-24 11:15:00
6:35 AM,62.8,59.2,88,29.78,10.0,South,5.8,-,0.02,Rain,Light Rain,190,2013-06-24 11:35:00
6:55 AM,63.9,57.6,80,29.75,10.0,East,4.6,-,0.02,,Clear,100,2013-06-24 11:55:00
7:15 AM,64.2,57.7,79,29.75,10.0,SE,3.5,-,N/A,,Clear,140,2013-06-24 12:15:00
7:35 AM,64.2,58.1,80,29.75,10.0,South,13.8,17.3,N/A,,Scattered Clouds,180,2013-06-24 12:35:00
7:55 AM,64.0,58.6,83,29.78,10.0,West,6.9,17.3,N/A,,Mostly Cloudy,260,2013-06-24 12:55:00
8:15 AM,66.2,58.8,77,29.78,10.0,WSW,3.5,-,N/A,,Scattered Clouds,240,2013-06-24 13:15:00
8:35 AM,65.5,59.2,80,29.77,10.0,ENE,8.1,-,N/A,,Clear,70,2013-06-24 13:35:00
8:55 AM,64.8,60.1,85,29.76,10.0,East,13.8,-,N/A,,Clear,80,2013-06-24 13:55:00
9:15 AM,67.1,59.9,78,29.76,10.0,East,12.7,18.4,N/A,,Clear,90,2013-06-24 14:15:00
9:35 AM,69.3,59.7,72,29.83,10.0,South,16.1,-,N/A,,Clear,170,2013-06-24 14:35:00
9:55 AM,70.0,60.1,71,29.81,10.0,SSE,11.5,-,N/A,,Clear,150,2013-06-24 14:55:00
10:15 AM,71.4,58.3,63,29.84,10.0,SSE,11.5,19.6,N/A,,Clear,150,2013-06-24 15:15:00
10:35 AM,71.8,58.1,62,29.85,10.0,SE,15.0,-,N/A,,Clear,140,2013-06-24 15:35:00
10:55 AM,71.6,59.5,66,29.85,10.0,ESE,11.5,20.7,N/A,,Clear,120,2013-06-24 15:55:00
11:15 AM,72.9,60.1,64,29.83,10.0,ESE,16.1,20.7,N/A,,Clear,110,2013-06-24 16:15:00
11:35 AM,72.5,60.1,65,29.84,10.0,ESE,18.4,-,N/A,,Clear,110,2013-06-24 16:35:00
11:55 AM,72.5,60.6,66,29.84,10.0,SE,11.5,-,N/A,,Clear,130,2013-06-24 16:55:00
12:15 PM,73.8,61.7,66,29.84,10.0,ESE,10.4,-,N/A,,Clear,110,2013-06-24 17:15:00
12:35 PM,74.8,62.1,64,29.83,10.0,SE,10.4,-,N/A,,Clear,140,2013-06-24 17:35:00
12:55 PM,75.7,61.3,61,29.82,10.0,SSE,9.2,-,N/A,,Clear,150,2013-06-24 17:55:00
1:15 PM,77.0,61.7,59,29.81,10.0,SE,10.4,-,N/A,,Clear,130,2013-06-24 18:15:00
1:35 PM,77.9,61.7,57,29.81,10.0,SSE,9.2,-,N/A,,Clear,160,2013-06-24 18:35:00
1:55 PM,79.0,61.7,55,29.80,10.0,SSE,11.5,-,N/A,,Clear,160,2013-06-24 18:55:00
2:15 PM,79.3,61.2,54,29.78,10.0,South,12.7,-,N/A,,Clear,170,2013-06-24 19:15:00
2:35 PM,80.1,62.2,54,29.78,10.0,South,10.4,-,N/A,,Clear,180,2013-06-24 19:35:00
2:55 PM,80.6,63.0,55,29.77,10.0,South,9.2,17.3,N/A,,Clear,170,2013-06-24 19:55:00
3:15 PM,81.5,63.5,54,29.77,10.0,South,9.2,-,N/A,,Clear,170,2013-06-24 20:15:00
3:35 PM,81.9,62.8,52,29.77,10.0,South,10.4,-,N/A,,Clear,180,2013-06-24 20:35:00
3:55 PM,82.4,63.5,53,29.76,10.0,South,11.5,-,N/A,,Clear,180,2013-06-24 20:55:00
4:15 PM,82.6,63.5,52,29.76,10.0,SSE,15.0,-,N/A,,Clear,160,2013-06-24 21:15:00
4:35 PM,82.8,64.0,53,29.76,10.0,South,13.8,-,N/A,,Clear,170,2013-06-24 21:35:00
4:55 PM,83.3,63.9,52,29.75,10.0,SSE,13.8,-,N/A,,Clear,160,2013-06-24 21:55:00
5:15 PM,82.8,63.9,53,29.75,10.0,South,10.4,17.3,N/A,,Clear,170,2013-06-24 22:15:00
5:35 PM,83.3,65.7,55,29.75,10.0,South,9.2,16.1,N/A,,Clear,170,2013-06-24 22:35:00
5:55 PM,82.0,63.7,54,29.74,10.0,SSE,10.4,-,N/A,,Clear,160,2013-06-24 22:55:00
6:15 PM,83.5,65.5,54,29.73,10.0,SE,13.8,17.3,N/A,,Clear,140,2013-06-24 23:15:00
6:35 PM,83.5,65.5,54,29.73,10.0,SSE,13.8,-,N/A,,Clear,150,2013-06-24 23:35:00
6:55 PM,83.3,65.8,55,29.72,10.0,SSE,11.5,-,N/A,,Clear,150,2013-06-24 23:55:00
7:15 PM,82.9,65.8,56,29.74,10.0,SSE,10.4,-,N/A,,Clear,150,2013-06-25 00:15:00
7:35 PM,82.6,66.7,59,29.74,10.0,SE,8.1,-,N/A,,Clear,140,2013-06-25 00:35:00
7:55 PM,81.7,67.1,61,29.74,10.0,SE,6.9,-,N/A,,Clear,130,2013-06-25 00:55:00
8:15 PM,78.4,67.8,70,29.74,10.0,ESE,4.6,-,N/A,,Clear,120,2013-06-25 01:15:00
8:35 PM,76.3,68.5,77,29.75,10.0,East,5.8,-,N/A,,Clear,100,2013-06-25 01:35:00
8:55 PM,75.4,68.5,79,29.74,10.0,ESE,6.9,-,N/A,,Clear,110,2013-06-25 01:55:00
9:15 PM,75.0,68.2,79,29.74,10.0,SE,8.1,-,N/A,,Clear,130,2013-06-25 02:15:00
9:35 PM,75.4,67.8,77,29.75,10.0,SE,6.9,-,N/A,,Clear,130,2013-06-25 02:35:00
9:55 PM,75.2,67.8,78,29.75,10.0,SE,5.8,-,N/A,,Clear,130,2013-06-25 02:55:00
10:15 PM,74.8,68.2,80,29.77,10.0,Calm,Calm,-,N/A,,Clear,0,2013-06-25 03:15:00
10:35 PM,73.6,68.2,83,29.78,10.0,Calm,Calm,-,N/A,,Clear,0,2013-06-25 03:35:00
10:55 PM,72.5,68.2,86,29.78,10.0,NNW,5.8,-,N/A,,Scattered Clouds,340,2013-06-25 03:55:00
11:15 PM,72.7,68.9,88,29.78,10.0,NNW,4.6,-,N/A,,Scattered Clouds,330,2013-06-25 04:15:00
11:35 PM,73.4,68.9,86,29.78,10.0,NNW,5.8,-,N/A,,Scattered Clouds,330,2013-06-25 04:35:00
11:55 PM,73.0,69.1,87,29.77,10.0,Calm,Calm,-,N/A,,Mostly Cloudy,0,2013-06-25 04:55:00